createdAt,value
2023-03-31T00:01:12.876Z,24.60
2023-03-31T00:03:43.955Z,25.58
2023-03-31T00:06:18.141Z,24.00
2023-03-31T00:08:47.288Z,24.92
2023-03-31T00:11:14.616Z,24.85
2023-03-31T00:13:41.971Z,24.95
2023-03-31T00:16:10.623Z,25.08
2023-03-31T00:18:40.912Z,25.70
2023-03-31T00:21:14.955Z,24.52
2023-03-31T00:23:42.522Z,25.40
2023-03-31T00:26:09.913Z,23.23
2023-03-31T00:28:37.332Z,27.35
2023-03-31T00:31:04.805Z,25.25
2023-03-31T00:33:32.238Z,26.60
2023-03-31T00:36:02.116Z,26.95
2023-03-31T00:38:30.708Z,27.65
2023-03-31T00:40:59.599Z,25.38
2023-03-31T00:43:32.348Z,26.95
2023-03-31T00:46:15.459Z,26.05
2023-03-31T00:48:51.590Z,26.90
2023-03-31T00:51:21.497Z,26.77
2023-03-31T00:53:59.785Z,27.83
2023-03-31T00:56:32.023Z,29.05
2023-03-31T00:59:03.731Z,27.20
2023-03-31T01:01:31.824Z,29.20
2023-03-31T01:03:59.626Z,29.23
2023-03-31T01:06:30.970Z,28.17
2023-03-31T01:08:59.986Z,28.02
2023-03-31T01:11:28.238Z,29.52
2023-03-31T01:13:57.627Z,28.10
2023-03-31T01:16:25.004Z,28.35
2023-03-31T01:18:57.533Z,26.95
2023-03-31T01:21:47.311Z,28.08
2023-03-31T01:24:24.199Z,28.75
2023-03-31T01:27:23.896Z,27.77
2023-03-31T01:30:06.070Z,28.35
2023-03-31T01:32:58.194Z,29.98
2023-03-31T01:35:31.213Z,28.35
2023-03-31T01:38:42.558Z,27.35
2023-03-31T01:41:19.013Z,28.75
2023-03-31T01:44:09.190Z,29.98
2023-03-31T01:46:49.477Z,30.33
2023-03-31T01:49:25.541Z,30.15
2023-03-31T01:52:11.572Z,29.83
2023-03-31T01:55:11.303Z,29.08
2023-03-31T01:57:49.424Z,30.80
2023-03-31T02:00:24.041Z,29.60
2023-03-31T02:02:59.748Z,29.65
2023-03-31T02:05:33.904Z,29.80
2023-03-31T02:08:10.998Z,29.15
2023-03-31T02:10:40.877Z,30.20
2023-03-31T02:13:11.039Z,30.40
2023-03-31T02:15:46.293Z,29.17
2023-03-31T02:18:17.248Z,28.67
2023-03-31T02:20:49.092Z,29.10
2023-03-31T02:23:20.016Z,27.65
2023-03-31T02:26:01.171Z,30.75
2023-03-31T02:28:29.892Z,27.98
2023-03-31T02:31:34.966Z,27.98
2023-03-31T02:34:04.095Z,26.23
2023-03-31T02:36:34.716Z,27.52
2023-03-31T02:39:09.770Z,27.13
2023-03-31T02:41:37.554Z,26.75
2023-03-31T02:44:04.985Z,27.73
2023-03-31T02:46:32.892Z,27.90
2023-03-31T02:49:04.557Z,26.50
2023-03-31T02:52:17.130Z,28.38
2023-03-31T02:55:03.567Z,27.30
2023-03-31T02:57:55.986Z,27.92
2023-03-31T03:01:02.138Z,27.35
2023-03-31T03:04:17.343Z,27.30
2023-03-31T03:06:53.831Z,27.42
2023-03-31T03:09:35.898Z,27.05
2023-03-31T03:12:06.699Z,28.45
2023-03-31T03:14:55.403Z,26.73
2023-03-31T03:17:40.659Z,27.67
2023-03-31T03:20:09.836Z,26.30
2023-03-31T03:22:39.205Z,25.38
2023-03-31T03:25:12.854Z,27.15
2023-03-31T03:27:40.602Z,26.65
2023-03-31T03:30:10.608Z,26.92
2023-03-31T03:32:38.381Z,27.38
2023-03-31T03:35:06.918Z,28.23
2023-03-31T03:37:35.409Z,26.02
2023-03-31T03:40:05.836Z,27.65
2023-03-31T03:42:34.372Z,28.15
2023-03-31T03:45:01.943Z,26.52
2023-03-31T03:47:29.463Z,25.60
2023-03-31T03:49:57.016Z,27.45
2023-03-31T03:52:24.388Z,28.83
2023-03-31T03:54:51.797Z,27.15
2023-03-31T03:57:19.214Z,26.42
2023-03-31T03:59:46.640Z,28.23
2023-03-31T04:02:14.500Z,27.60
2023-03-31T04:04:41.986Z,27.83
2023-03-31T04:07:09.359Z,26.77
2023-03-31T04:09:36.846Z,26.77
2023-03-31T04:12:04.586Z,29.42
2023-03-31T04:14:31.946Z,27.30
2023-03-31T04:16:59.345Z,28.00
2023-03-31T04:19:27.575Z,26.33
2023-03-31T04:21:58.888Z,27.95
2023-03-31T04:24:33.144Z,26.43
2023-03-31T04:27:01.277Z,24.55
2023-03-31T04:29:28.653Z,26.60
2023-03-31T04:31:59.967Z,25.90
2023-03-31T04:34:35.067Z,25.83
2023-03-31T04:37:03.576Z,24.67
2023-03-31T04:39:34.615Z,25.88
2023-03-31T04:42:02.204Z,27.10
2023-03-31T04:44:29.783Z,25.95
2023-03-31T04:46:58.855Z,25.98
2023-03-31T04:49:26.286Z,26.80
2023-03-31T04:51:53.725Z,26.38
2023-03-31T04:54:21.218Z,27.40
2023-03-31T04:56:48.658Z,27.77
2023-03-31T04:59:16.222Z,27.55
2023-03-31T05:01:45.719Z,27.00
2023-03-31T05:04:13.368Z,32.33
2023-03-31T05:06:41.129Z,27.55
2023-03-31T05:09:09.802Z,27.90
2023-03-31T05:11:38.327Z,28.02
2023-03-31T05:14:05.931Z,27.15
2023-03-31T05:16:33.719Z,26.83
2023-03-31T05:19:01.115Z,26.00
2023-03-31T05:21:30.565Z,29.08
2023-03-31T05:23:58.171Z,27.77
2023-03-31T05:26:26.500Z,28.92
2023-03-31T05:28:54.479Z,28.10
2023-03-31T05:31:22.150Z,27.80
2023-03-31T05:33:49.723Z,27.85
2023-03-31T05:36:18.133Z,29.33
2023-03-31T05:38:46.029Z,29.25
2023-03-31T05:41:13.431Z,29.02
2023-03-31T05:43:40.888Z,29.75
2023-03-31T05:46:08.690Z,37.70
2023-03-31T05:48:37.937Z,32.53
2023-03-31T05:51:06.089Z,29.92
2023-03-31T05:53:34.176Z,31.08
2023-03-31T05:56:04.096Z,30.35
2023-03-31T05:58:31.880Z,34.47
2023-03-31T06:01:08.427Z,29.75
2023-03-31T06:03:43.790Z,31.05
2023-03-31T06:06:15.108Z,30.65
2023-03-31T06:08:43.918Z,28.55
2023-03-31T06:11:14.268Z,30.38
2023-03-31T06:13:42.131Z,28.63
2023-03-31T06:16:12.178Z,30.20
2023-03-31T06:18:40.508Z,29.05
2023-03-31T06:21:08.780Z,30.58
2023-03-31T06:23:36.582Z,31.17
2023-03-31T06:26:08.201Z,31.08
2023-03-31T06:28:36.276Z,30.73
2023-03-31T06:31:12.762Z,28.35
2023-03-31T06:33:41.766Z,35.33
2023-03-31T06:36:10.618Z,29.55
2023-03-31T06:38:38.679Z,30.50
2023-03-31T06:41:07.796Z,31.08
2023-03-31T06:43:35.910Z,30.83
2023-03-31T06:46:03.691Z,29.90
2023-03-31T06:48:31.428Z,30.73
2023-03-31T06:51:03.857Z,31.10
2023-03-31T06:53:31.347Z,29.05
2023-03-31T06:55:59.210Z,30.67
2023-03-31T06:58:29.019Z,31.90
2023-03-31T07:00:58.462Z,29.33
2023-03-31T07:03:26.026Z,30.33
2023-03-31T07:05:54.763Z,32.03
2023-03-31T07:08:23.019Z,30.35
2023-03-31T07:10:58.277Z,29.67
2023-03-31T07:13:26.585Z,30.38
2023-03-31T07:15:54.635Z,31.10
2023-03-31T07:18:26.312Z,30.33
2023-03-31T07:20:53.923Z,30.27
2023-03-31T07:23:21.412Z,31.42
2023-03-31T07:25:49.637Z,30.45
2023-03-31T07:28:18.588Z,30.02
2023-03-31T07:30:46.009Z,30.95
2023-03-31T07:33:13.672Z,28.52
2023-03-31T07:35:41.572Z,29.40
2023-03-31T07:38:11.030Z,28.45
2023-03-31T07:40:39.322Z,29.05
2023-03-31T07:43:07.528Z,29.65
2023-03-31T07:45:35.796Z,28.95
2023-03-31T07:48:03.599Z,31.80
2023-03-31T07:50:31.312Z,28.25
2023-03-31T07:53:00.657Z,30.52
2023-03-31T07:55:28.070Z,28.73
2023-03-31T07:57:55.784Z,29.88
2023-03-31T08:00:23.723Z,28.52
2023-03-31T08:02:51.521Z,30.58
2023-03-31T08:05:20.899Z,29.35
2023-03-31T08:07:50.056Z,28.83
2023-03-31T08:10:21.686Z,31.17
2023-03-31T08:12:49.319Z,29.48
2023-03-31T08:15:17.262Z,28.85
2023-03-31T08:17:44.892Z,29.42
2023-03-31T08:20:12.690Z,30.25
2023-03-31T08:22:40.550Z,28.25
2023-03-31T08:25:08.578Z,29.63
2023-03-31T08:27:38.224Z,28.02
2023-03-31T08:30:07.942Z,30.30
2023-03-31T08:32:36.488Z,30.13
2023-03-31T08:35:04.337Z,30.23
2023-03-31T08:37:32.376Z,28.27
2023-03-31T08:40:00.445Z,28.30
2023-03-31T08:42:30.737Z,29.38
2023-03-31T08:45:06.923Z,28.20
2023-03-31T08:47:37.083Z,28.85
2023-03-31T08:50:14.122Z,28.77
2023-03-31T08:53:06.474Z,26.10
2023-03-31T08:55:52.280Z,27.65
2023-03-31T08:58:39.527Z,28.77
2023-03-31T09:01:44.151Z,28.88
2023-03-31T09:07:20.754Z,29.55
2023-03-31T09:10:11.309Z,31.65
2023-03-31T09:13:09.639Z,33.50
2023-03-31T09:15:46.391Z,34.35
2023-03-31T09:18:35.868Z,35.85
2023-03-31T09:21:30.790Z,33.80
2023-03-31T09:24:20.777Z,33.47
2023-03-31T09:27:14.939Z,32.85
2023-03-31T09:29:56.513Z,33.35
2023-03-31T09:32:28.557Z,33.80
2023-03-31T09:35:03.175Z,33.85
2023-03-31T09:37:33.269Z,34.80
2023-03-31T09:40:07.477Z,31.05
2023-03-31T09:42:36.653Z,32.72
2023-03-31T09:45:04.758Z,34.17
2023-03-31T09:47:47.366Z,33.95
2023-03-31T09:50:16.353Z,35.88
2023-03-31T09:52:50.475Z,35.15
2023-03-31T09:55:39.771Z,34.20
2023-03-31T09:58:13.158Z,33.03
2023-03-31T10:01:01.798Z,31.80
2023-03-31T10:03:36.581Z,36.80
2023-03-31T10:06:11.359Z,35.60
2023-03-31T10:08:47.799Z,33.40
2023-03-31T10:11:15.507Z,33.83
2023-03-31T10:13:45.929Z,32.80
2023-03-31T10:16:31.527Z,35.08
2023-03-31T10:19:26.679Z,33.70
2023-03-31T10:22:16.083Z,33.65
2023-03-31T10:24:45.490Z,33.28
2023-03-31T10:27:21.930Z,31.42
2023-03-31T10:29:56.599Z,32.50
2023-03-31T10:32:34.205Z,31.70
2023-03-31T10:35:08.063Z,32.50
2023-03-31T10:37:36.800Z,29.92
2023-03-31T10:40:19.536Z,28.00
2023-03-31T10:42:50.427Z,28.33
2023-03-31T10:45:29.672Z,28.80
2023-03-31T10:48:03.794Z,29.60
2023-03-31T10:50:36.578Z,28.85
2023-03-31T10:53:13.133Z,30.27
2023-03-31T10:56:15.132Z,28.95
2023-03-31T10:59:14.026Z,27.67
2023-03-31T11:02:05.735Z,26.88
2023-03-31T11:04:52.771Z,26.00
2023-03-31T11:07:22.872Z,27.60
2023-03-31T11:10:22.226Z,26.73
2023-03-31T11:13:14.533Z,27.27
2023-03-31T11:16:14.648Z,27.98
2023-03-31T11:18:48.054Z,23.83
2023-03-31T11:21:34.457Z,24.95
2023-03-31T11:24:22.934Z,26.13
2023-03-31T11:27:16.642Z,26.23
2023-03-31T11:30:13.280Z,27.40
2023-03-31T11:33:04.809Z,27.02
2023-03-31T11:35:57.039Z,26.80
2023-03-31T11:38:50.694Z,24.98
2023-03-31T11:41:22.812Z,24.00
2023-03-31T11:43:54.662Z,22.58
2023-03-31T11:46:24.012Z,19.77
2023-03-31T11:49:15.536Z,21.35
2023-03-31T11:52:02.774Z,21.13
2023-03-31T11:54:42.165Z,23.63
2023-03-31T11:57:33.394Z,24.23
2023-03-31T12:00:07.667Z,23.88
2023-03-31T12:02:43.455Z,23.17
2023-03-31T12:05:13.695Z,22.33
2023-03-31T12:08:03.162Z,22.60
2023-03-31T12:10:36.610Z,21.55
2023-03-31T12:13:15.852Z,24.48
2023-03-31T12:15:51.353Z,19.63
2023-03-31T12:18:25.052Z,15.15
2023-03-31T12:21:04.492Z,14.85
2023-03-31T12:23:38.967Z,14.45
2023-03-31T12:26:25.030Z,15.77
2023-03-31T12:28:58.298Z,16.90
2023-03-31T12:31:27.928Z,13.73
2023-03-31T12:34:08.741Z,15.98
2023-03-31T12:36:39.124Z,15.48
2023-03-31T12:39:30.751Z,17.25
2023-03-31T12:42:24.157Z,15.85
2023-03-31T12:45:01.202Z,19.00
2023-03-31T12:47:42.250Z,17.52
2023-03-31T12:50:47.041Z,17.58
2023-03-31T12:53:19.932Z,17.05
2023-03-31T12:55:54.236Z,17.17
2023-03-31T12:58:33.127Z,16.48
2023-03-31T13:01:07.205Z,18.60
2023-03-31T13:03:48.698Z,17.58
2023-03-31T13:06:28.095Z,17.35
2023-03-31T13:09:05.759Z,17.48
2023-03-31T13:11:36.522Z,17.45
2023-03-31T13:14:21.980Z,16.17
2023-03-31T13:16:56.505Z,16.20
2023-03-31T13:19:35.863Z,15.10
2023-03-31T13:22:06.159Z,14.35
2023-03-31T13:24:34.978Z,13.93
2023-03-31T13:27:29.824Z,14.38
2023-03-31T13:29:57.192Z,12.52
2023-03-31T13:32:28.581Z,11.38
2023-03-31T13:35:10.540Z,11.63
2023-03-31T13:37:46.799Z,11.50
2023-03-31T13:40:47.264Z,11.60
2023-03-31T13:43:51.422Z,12.65
2023-03-31T13:46:30.484Z,9.27
2023-03-31T13:49:30.368Z,9.20
2023-03-31T13:52:01.230Z,9.18
2023-03-31T13:54:34.694Z,9.85
2023-03-31T13:57:29.813Z,11.55
2023-03-31T14:00:20.608Z,10.88
2023-03-31T14:03:12.584Z,10.85
2023-03-31T14:05:45.190Z,12.02
2023-03-31T14:08:31.416Z,11.55
2023-03-31T14:11:17.044Z,11.20
2023-03-31T14:13:44.448Z,10.57
2023-03-31T14:16:14.206Z,12.65
2023-03-31T14:18:49.229Z,14.93
2023-03-31T14:21:32.032Z,15.25
2023-03-31T14:24:14.885Z,14.32
2023-03-31T14:27:25.734Z,16.25
2023-03-31T14:30:00.904Z,15.02
2023-03-31T14:32:38.826Z,15.60
2023-03-31T14:35:23.742Z,16.35
2023-03-31T14:37:51.194Z,16.10
2023-03-31T14:40:19.015Z,16.35
2023-03-31T14:42:50.052Z,15.55
2023-03-31T14:45:17.456Z,16.40
2023-03-31T14:48:16.519Z,14.77
2023-03-31T14:50:46.521Z,14.90
2023-03-31T14:53:18.225Z,14.55
2023-03-31T14:55:58.139Z,13.65
2023-03-31T14:58:35.022Z,15.95
2023-03-31T15:01:07.043Z,15.23
2023-03-31T15:03:38.697Z,14.30
2023-03-31T15:06:06.433Z,14.93
2023-03-31T15:08:37.415Z,15.13
2023-03-31T15:11:19.460Z,14.52
2023-03-31T15:14:03.594Z,16.30
2023-03-31T15:16:35.584Z,20.50
2023-03-31T15:19:11.796Z,14.52
2023-03-31T15:21:39.281Z,14.82
2023-03-31T15:24:07.922Z,14.48
2023-03-31T15:26:41.539Z,14.30
2023-03-31T15:29:17.597Z,13.07
2023-03-31T15:31:45.484Z,12.45
2023-03-31T15:34:37.017Z,13.52
2023-03-31T15:37:07.801Z,12.15
2023-03-31T15:39:37.313Z,11.95
2023-03-31T15:42:07.354Z,12.30
2023-03-31T15:45:16.118Z,12.05
2023-03-31T15:47:54.313Z,12.93
2023-03-31T15:50:24.366Z,12.70
2023-03-31T15:52:54.502Z,13.43
2023-03-31T15:55:41.185Z,13.50
2023-03-31T15:58:15.785Z,12.27
2023-03-31T16:00:54.430Z,11.52
2023-03-31T16:03:28.847Z,12.93
2023-03-31T16:05:58.510Z,12.02
2023-03-31T16:08:33.326Z,11.73
2023-03-31T16:11:08.636Z,11.90
2023-03-31T16:13:39.979Z,12.27
2023-03-31T16:16:20.172Z,12.07
2023-03-31T16:18:51.136Z,14.85
2023-03-31T16:21:44.576Z,13.00
2023-03-31T16:24:11.997Z,11.85
2023-03-31T16:26:39.503Z,11.85
2023-03-31T16:29:07.421Z,11.90
2023-03-31T16:31:34.837Z,13.68
2023-03-31T16:34:04.760Z,13.88
2023-03-31T16:39:21.262Z,14.13
2023-03-31T16:41:48.637Z,14.32
2023-03-31T16:44:16.212Z,13.82
2023-03-31T16:46:43.655Z,13.57
2023-03-31T16:49:11.097Z,14.65
2023-03-31T16:51:38.455Z,15.43
2023-03-31T16:54:05.940Z,16.27
2023-03-31T16:56:33.314Z,16.55
2023-03-31T16:59:01.719Z,16.58
2023-03-31T17:01:29.232Z,16.23
2023-03-31T17:03:59.154Z,18.15
2023-03-31T17:06:26.696Z,16.20
2023-03-31T17:08:54.086Z,20.88
2023-03-31T17:11:21.587Z,21.75
2023-03-31T17:13:49.893Z,25.10
2023-03-31T17:16:24.339Z,26.85
2023-03-31T17:18:57.037Z,25.95
2023-03-31T17:21:24.636Z,26.67
2023-03-31T17:23:52.320Z,27.40
2023-03-31T17:26:19.722Z,30.05
2023-03-31T17:28:47.239Z,30.52
2023-03-31T17:31:21.895Z,28.50
2023-03-31T17:33:49.361Z,31.65
2023-03-31T17:36:16.936Z,29.73
2023-03-31T17:38:44.908Z,29.67
2023-03-31T17:41:13.793Z,32.83
2023-03-31T17:43:45.096Z,31.98
2023-03-31T17:46:14.182Z,32.63
2023-03-31T17:48:42.191Z,32.30
2023-03-31T17:51:13.798Z,32.05
2023-03-31T17:53:42.849Z,32.90
2023-03-31T17:56:11.108Z,32.25
2023-03-31T17:58:38.534Z,30.85
2023-03-31T18:01:07.740Z,30.50
2023-03-31T18:03:35.641Z,30.75
2023-03-31T18:06:08.609Z,33.50
2023-03-31T18:08:36.229Z,33.60
2023-03-31T18:11:05.292Z,35.25
2023-03-31T18:13:34.801Z,35.25
2023-03-31T18:16:02.983Z,37.15
2023-03-31T18:18:36.710Z,34.20
2023-03-31T18:21:10.723Z,33.25
2023-03-31T18:23:39.330Z,33.05
2023-03-31T18:26:08.446Z,35.25
2023-03-31T18:28:36.089Z,38.65
2023-03-31T18:31:10.745Z,37.50
2023-03-31T18:33:39.454Z,39.42
2023-03-31T18:36:07.842Z,39.35
2023-03-31T18:38:37.016Z,44.72
2023-03-31T18:41:05.135Z,39.30
2023-03-31T18:43:33.361Z,39.65
2023-03-31T18:46:01.822Z,40.17
2023-03-31T18:48:29.547Z,42.13
2023-03-31T18:50:57.506Z,41.92
2023-03-31T18:53:25.363Z,43.40
2023-03-31T18:55:54.990Z,41.30
2023-03-31T18:58:23.171Z,41.10
2023-03-31T19:00:51.060Z,41.53
2023-03-31T19:03:19.211Z,41.60
2023-03-31T19:05:47.245Z,43.35
2023-03-31T19:08:14.629Z,46.42
2023-03-31T19:10:42.138Z,42.47
2023-03-31T19:13:14.715Z,46.22
2023-03-31T19:15:42.282Z,41.83
2023-03-31T19:18:14.289Z,40.72
2023-03-31T19:20:47.069Z,40.38
2023-03-31T19:23:14.543Z,40.70
2023-03-31T19:25:41.925Z,36.88
2023-03-31T19:28:09.476Z,36.25
2023-03-31T19:30:36.911Z,30.02
2023-03-31T19:33:04.508Z,33.30
2023-03-31T19:35:32.109Z,40.53
2023-03-31T19:37:59.642Z,44.45
2023-03-31T19:40:27.967Z,47.20
2023-03-31T19:42:55.543Z,50.58
2023-03-31T19:45:22.928Z,50.92
2023-03-31T19:47:50.526Z,47.92
2023-03-31T19:50:17.959Z,45.00
2023-03-31T19:52:46.841Z,43.13
2023-03-31T19:55:16.846Z,36.80
2023-03-31T19:57:44.196Z,36.90
2023-03-31T20:00:12.533Z,39.03
2023-03-31T20:02:40.068Z,48.45
2023-03-31T20:05:08.019Z,48.85
2023-03-31T20:07:35.382Z,44.95
2023-03-31T20:10:02.859Z,39.33
2023-03-31T20:12:30.333Z,39.15
2023-03-31T20:14:57.679Z,56.40
2023-03-31T20:17:25.148Z,48.25
2023-03-31T20:19:52.497Z,38.95
2023-03-31T20:22:19.956Z,40.38
2023-03-31T20:24:47.310Z,40.90
2023-03-31T20:27:14.707Z,42.97
2023-03-31T20:29:42.065Z,41.22
2023-03-31T20:32:09.858Z,39.95
2023-03-31T20:34:37.432Z,44.17
2023-03-31T20:37:04.791Z,40.35
2023-03-31T20:39:32.260Z,42.47
2023-03-31T20:41:59.599Z,43.47
2023-03-31T20:44:27.018Z,45.00
2023-03-31T20:46:56.005Z,44.40
2023-03-31T20:49:23.430Z,44.50
2023-03-31T20:51:50.996Z,44.65
2023-03-31T20:54:18.533Z,43.15
2023-03-31T20:56:47.161Z,43.30
2023-03-31T20:59:15.867Z,40.90
2023-03-31T21:01:45.279Z,41.03
2023-03-31T21:04:13.271Z,39.75
2023-03-31T21:06:43.107Z,40.05
2023-03-31T21:09:12.311Z,39.63
2023-03-31T21:11:40.769Z,38.85
2023-03-31T21:14:12.557Z,41.17
2023-03-31T21:16:40.345Z,44.05
2023-03-31T21:19:07.759Z,40.42
2023-03-31T21:21:36.222Z,39.28
2023-03-31T21:24:03.998Z,40.70
2023-03-31T21:26:31.394Z,40.75
2023-03-31T21:28:58.797Z,39.00
2023-03-31T21:31:27.191Z,38.17
2023-03-31T21:33:57.540Z,39.47
2023-03-31T21:36:25.584Z,38.47
2023-03-31T21:38:54.034Z,37.85
2023-03-31T21:41:27.993Z,39.10
2023-03-31T21:43:56.545Z,39.80
2023-03-31T21:46:27.451Z,37.80
2023-03-31T21:48:56.454Z,40.13
2023-03-31T21:51:25.210Z,40.38
2023-03-31T21:53:55.397Z,41.65
2023-03-31T21:56:24.808Z,43.08
2023-03-31T21:58:52.673Z,42.80
2023-03-31T22:01:21.626Z,38.55
2023-03-31T22:03:50.094Z,34.38
2023-03-31T22:06:17.822Z,36.22
2023-03-31T22:08:45.667Z,37.22
2023-03-31T22:11:13.649Z,39.03
2023-03-31T22:13:41.615Z,38.22
2023-03-31T22:16:18.971Z,36.67
2023-03-31T22:18:47.642Z,37.13
2023-03-31T22:21:26.252Z,39.53
2023-03-31T22:23:55.923Z,36.40
2023-03-31T22:26:24.301Z,37.03
2023-03-31T22:28:52.108Z,36.30
2023-03-31T22:31:19.695Z,39.95
2023-03-31T22:33:47.464Z,38.85
2023-03-31T22:36:15.749Z,39.47
2023-03-31T22:38:43.250Z,36.58
2023-03-31T22:41:10.748Z,36.25
2023-03-31T22:43:38.140Z,38.20
2023-03-31T22:46:07.187Z,38.17
2023-03-31T22:48:34.629Z,39.45
2023-03-31T22:51:04.915Z,41.47
2023-03-31T22:53:33.123Z,42.90
2023-03-31T22:56:10.565Z,43.97
2023-03-31T22:58:38.488Z,42.67
2023-03-31T23:01:06.975Z,41.78
2023-03-31T23:03:35.431Z,41.50
2023-03-31T23:06:05.189Z,40.85
2023-03-31T23:08:33.704Z,39.38
2023-03-31T23:11:02.996Z,41.33
2023-03-31T23:13:30.883Z,41.67
2023-03-31T23:16:22.469Z,42.35
2023-03-31T23:18:51.789Z,39.47
2023-03-31T23:21:22.562Z,39.50
2023-03-31T23:23:55.540Z,37.83
2023-03-31T23:26:24.966Z,41.67
2023-03-31T23:28:53.037Z,39.45
2023-03-31T23:31:23.212Z,41.95
2023-03-31T23:33:50.813Z,41.10
2023-03-31T23:36:20.924Z,41.00
2023-03-31T23:38:50.657Z,40.22
2023-03-31T23:41:19.453Z,39.25
2023-03-31T23:43:47.158Z,40.75
2023-03-31T23:46:14.631Z,40.45
2023-03-31T23:48:42.123Z,40.88
2023-03-31T23:51:10.097Z,40.50
2023-03-31T23:53:37.474Z,40.53
2023-03-31T23:56:10.518Z,40.30
2023-03-31T23:58:40.236Z,40.80
